createdAt,value
2023-02-27T00:01:31.546Z,-1.26
2023-02-27T00:03:59.411Z,-1.21
2023-02-27T00:06:27.270Z,-1.17
2023-02-27T00:08:55.214Z,-1.13
2023-02-27T00:11:23.139Z,-1.16
2023-02-27T00:13:51.153Z,-1.19
2023-02-27T00:16:20.122Z,-1.22
2023-02-27T00:18:47.939Z,-1.22
2023-02-27T00:21:15.661Z,-1.23
2023-02-27T00:23:43.238Z,-1.26
2023-02-27T00:26:10.838Z,-1.24
2023-02-27T00:28:38.415Z,-1.19
2023-02-27T00:31:06.550Z,-1.13
2023-02-27T00:33:35.610Z,-1.07
2023-02-27T00:36:03.830Z,-1.01
2023-02-27T00:38:32.012Z,-0.90
2023-02-27T00:40:59.708Z,-0.84
2023-02-27T00:43:27.532Z,-0.78
2023-02-27T00:45:55.182Z,-0.75
2023-02-27T00:48:22.791Z,-0.68
2023-02-27T00:50:51.909Z,-0.64
2023-02-27T00:53:20.066Z,-0.64
2023-02-27T00:55:47.655Z,-0.66
2023-02-27T00:58:15.305Z,-0.68
2023-02-27T01:00:43.033Z,-0.72
2023-02-27T01:03:10.700Z,-0.76
2023-02-27T01:05:38.378Z,-0.77
2023-02-27T01:08:07.830Z,-0.69
2023-02-27T01:10:35.571Z,-0.61
2023-02-27T01:13:03.649Z,-0.51
2023-02-27T01:15:31.288Z,-0.42
2023-02-27T01:17:58.952Z,-0.33
2023-02-27T01:20:26.640Z,-0.25
2023-02-27T01:22:54.260Z,-0.17
2023-02-27T01:25:23.268Z,-0.13
2023-02-27T01:27:51.320Z,-0.13
2023-02-27T01:30:19.212Z,-0.10
2023-02-27T01:32:46.882Z,-0.11
2023-02-27T01:35:14.631Z,-0.10
2023-02-27T01:37:42.266Z,-0.09
2023-02-27T01:40:10.935Z,-0.09
2023-02-27T01:42:39.963Z,-0.02
2023-02-27T01:45:31.280Z,0.09
2023-02-27T01:48:07.416Z,0.20
2023-02-27T01:50:37.721Z,0.32
2023-02-27T01:53:07.718Z,0.41
2023-02-27T01:55:39.496Z,0.50
2023-02-27T01:58:12.604Z,0.57
2023-02-27T02:00:40.848Z,0.66
2023-02-27T02:03:18.160Z,0.72
2023-02-27T02:05:47.772Z,0.77
2023-02-27T02:08:18.456Z,0.82
2023-02-27T02:10:48.382Z,0.87
2023-02-27T02:13:17.464Z,0.89
2023-02-27T02:16:05.957Z,0.92
2023-02-27T02:18:42.362Z,0.95
2023-02-27T02:21:36.592Z,0.96
2023-02-27T02:24:40.013Z,1.02
2023-02-27T02:27:20.772Z,1.03
2023-02-27T02:30:22.476Z,1.02
2023-02-27T02:33:20.563Z,0.98
2023-02-27T02:36:23.704Z,0.89
2023-02-27T02:39:11.238Z,0.77
2023-02-27T02:41:50.637Z,0.65
2023-02-27T02:44:25.872Z,0.57
2023-02-27T02:47:03.025Z,0.51
2023-02-27T02:49:37.727Z,0.53
2023-02-27T02:52:14.102Z,0.57
2023-02-27T02:54:47.685Z,0.61
2023-02-27T02:57:18.400Z,0.66
2023-02-27T02:59:52.427Z,0.67
2023-02-27T03:02:24.846Z,0.68
2023-02-27T03:04:57.256Z,0.67
2023-02-27T03:07:31.304Z,0.62
2023-02-27T03:10:06.089Z,0.55
2023-02-27T03:12:36.125Z,0.49
2023-02-27T03:15:08.819Z,0.44
2023-02-27T03:17:44.029Z,0.37
2023-02-27T03:20:15.933Z,0.33
2023-02-27T03:22:48.347Z,0.26
2023-02-27T03:25:19.077Z,0.21
2023-02-27T03:27:53.471Z,0.14
2023-02-27T03:30:27.398Z,0.08
2023-02-27T03:32:59.956Z,-0.03
2023-02-27T03:35:35.044Z,0.00
2023-02-27T03:38:09.542Z,0.00
2023-02-27T03:40:45.243Z,-0.07
2023-02-27T03:43:22.215Z,-0.16
2023-02-27T03:45:57.725Z,-0.25
2023-02-27T03:48:25.383Z,-0.36
2023-02-27T03:50:53.176Z,-0.45
2023-02-27T03:53:28.728Z,-0.51
2023-02-27T03:56:00.850Z,-0.58
2023-02-27T03:58:29.059Z,-0.64
2023-02-27T04:00:56.983Z,-0.70
2023-02-27T04:03:24.691Z,-0.74
2023-02-27T04:05:53.005Z,-0.78
2023-02-27T04:08:40.505Z,-0.72
2023-02-27T04:11:26.555Z,-0.70
2023-02-27T04:14:06.745Z,-0.66
2023-02-27T04:16:49.743Z,-0.59
2023-02-27T04:19:30.586Z,-0.60
2023-02-27T04:22:06.651Z,-0.68
2023-02-27T04:24:43.892Z,-0.76
2023-02-27T04:27:21.405Z,-0.85
2023-02-27T04:29:55.346Z,-0.93
2023-02-27T04:32:30.600Z,-0.99
2023-02-27T04:35:03.244Z,-1.04
2023-02-27T04:37:38.280Z,-1.11
2023-02-27T04:40:11.096Z,-1.17
2023-02-27T04:42:47.615Z,-1.21
2023-02-27T04:45:19.818Z,-1.21
2023-02-27T04:47:51.592Z,-1.16
2023-02-27T04:50:25.528Z,-1.18
2023-02-27T04:52:58.066Z,-1.06
2023-02-27T04:55:29.889Z,-1.01
2023-02-27T04:58:02.860Z,-1.01
2023-02-27T05:00:33.692Z,-1.05
2023-02-27T05:03:06.607Z,-1.10
2023-02-27T05:05:38.289Z,-1.11
2023-02-27T05:08:13.492Z,-1.12
2023-02-27T05:10:46.349Z,-1.12
2023-02-27T05:13:19.512Z,-1.10
2023-02-27T05:15:50.245Z,-1.10
2023-02-27T05:18:20.230Z,-1.08
2023-02-27T05:20:56.902Z,-1.09
2023-02-27T05:23:36.729Z,-1.16
2023-02-27T05:26:15.523Z,-1.19
2023-02-27T05:28:52.688Z,-1.16
2023-02-27T05:31:27.846Z,-1.12
2023-02-27T05:34:00.245Z,-1.05
2023-02-27T05:36:34.661Z,-1.02
2023-02-27T05:39:05.721Z,-1.04
2023-02-27T05:41:37.996Z,-1.08
2023-02-27T05:44:12.708Z,-1.15
2023-02-27T05:46:44.579Z,-1.21
2023-02-27T05:49:17.926Z,-1.26
2023-02-27T05:51:49.267Z,-1.30
2023-02-27T05:54:23.310Z,-1.30
2023-02-27T05:56:55.621Z,-1.32
2023-02-27T05:59:32.235Z,-1.33
2023-02-27T06:01:59.888Z,-1.28
2023-02-27T06:04:27.597Z,-1.08
2023-02-27T06:06:55.306Z,-0.92
2023-02-27T06:09:22.900Z,-0.76
2023-02-27T06:11:50.701Z,-0.67
2023-02-27T06:14:18.791Z,-0.62
2023-02-27T06:16:47.846Z,-0.59
2023-02-27T06:19:15.571Z,-0.53
2023-02-27T06:21:43.186Z,-0.45
2023-02-27T06:24:10.819Z,-0.37
2023-02-27T06:26:38.387Z,-0.30
2023-02-27T06:29:05.987Z,-0.21
2023-02-27T06:31:33.736Z,-0.17
2023-02-27T06:34:02.873Z,-0.16
2023-02-27T06:36:30.753Z,-0.14
2023-02-27T06:38:58.794Z,-0.14
2023-02-27T06:41:26.551Z,-0.16
2023-02-27T06:43:55.674Z,-0.19
2023-02-27T06:46:23.357Z,-0.24
2023-02-27T06:48:51.121Z,-0.25
2023-02-27T06:51:20.404Z,-0.25
2023-02-27T06:53:47.947Z,-0.21
2023-02-27T06:56:15.927Z,-0.16
2023-02-27T06:58:44.418Z,-0.08
2023-02-27T07:01:13.356Z,0.00
2023-02-27T07:03:41.005Z,0.11
2023-02-27T07:06:08.888Z,0.23
2023-02-27T07:08:37.908Z,0.39
2023-02-27T07:11:25.494Z,0.54
2023-02-27T07:13:53.056Z,0.64
2023-02-27T07:16:21.025Z,0.76
2023-02-27T07:18:48.880Z,0.86
2023-02-27T07:21:16.546Z,0.91
2023-02-27T07:23:45.568Z,1.01
2023-02-27T07:26:13.176Z,1.11
2023-02-27T07:28:40.779Z,1.24
2023-02-27T07:31:08.388Z,1.35
2023-02-27T07:33:36.031Z,1.42
2023-02-27T07:36:03.716Z,1.50
2023-02-27T07:38:32.363Z,1.61
2023-02-27T07:41:01.332Z,1.74
2023-02-27T07:43:29.041Z,1.87
2023-02-27T07:45:56.622Z,2.00
2023-02-27T07:48:24.241Z,2.12
2023-02-27T07:50:51.897Z,2.22
2023-02-27T07:53:19.759Z,2.37
2023-02-27T07:55:47.590Z,2.54
2023-02-27T07:58:16.875Z,2.73
2023-02-27T08:00:44.833Z,2.87
2023-02-27T08:03:12.578Z,2.98
2023-02-27T08:05:40.232Z,3.10
2023-02-27T08:08:07.920Z,3.20
2023-02-27T08:10:35.509Z,3.29
2023-02-27T08:13:03.277Z,3.31
2023-02-27T08:15:32.649Z,3.39
2023-02-27T08:18:00.286Z,3.45
2023-02-27T08:20:27.884Z,3.54
2023-02-27T08:22:55.451Z,3.78
2023-02-27T08:25:23.149Z,4.00
2023-02-27T08:27:50.857Z,4.23
2023-02-27T08:30:18.876Z,4.40
2023-02-27T08:32:47.958Z,4.49
2023-02-27T08:35:16.254Z,4.48
2023-02-27T08:37:43.880Z,4.55
2023-02-27T08:40:12.685Z,4.59
2023-02-27T08:42:40.420Z,4.41
2023-02-27T08:45:09.199Z,4.27
2023-02-27T08:47:37.160Z,4.31
2023-02-27T08:50:07.228Z,4.32
2023-02-27T08:52:34.901Z,4.42
2023-02-27T08:55:02.532Z,4.43
2023-02-27T08:57:30.637Z,4.40
2023-02-27T08:59:58.303Z,4.42
2023-02-27T09:02:26.799Z,4.48
2023-02-27T09:04:54.623Z,4.47
2023-02-27T09:07:23.607Z,4.52
2023-02-27T09:09:51.275Z,4.65
2023-02-27T09:12:18.914Z,4.75
2023-02-27T09:14:46.657Z,4.91
2023-02-27T09:17:14.654Z,4.96
2023-02-27T09:19:42.324Z,5.08
2023-02-27T09:22:09.992Z,5.05
2023-02-27T09:24:38.952Z,5.11
2023-02-27T09:27:06.597Z,5.26
2023-02-27T09:29:34.655Z,5.32
2023-02-27T09:32:02.339Z,5.46
2023-02-27T09:34:30.587Z,5.59
2023-02-27T09:37:00.092Z,5.57
2023-02-27T09:39:27.847Z,5.72
2023-02-27T09:42:02.879Z,5.97
2023-02-27T09:44:47.085Z,5.99
2023-02-27T09:47:20.025Z,5.80
2023-02-27T09:50:03.206Z,5.87
2023-02-27T09:52:33.953Z,5.85
2023-02-27T09:55:01.815Z,5.95
2023-02-27T09:57:43.752Z,6.02
2023-02-27T10:00:36.627Z,6.08
2023-02-27T10:03:18.506Z,6.13
2023-02-27T10:05:53.174Z,6.25
2023-02-27T10:08:27.571Z,6.35
2023-02-27T10:11:01.030Z,6.48
2023-02-27T10:13:42.045Z,6.61
2023-02-27T10:16:13.649Z,6.62
2023-02-27T10:18:52.595Z,6.68
2023-02-27T10:21:24.606Z,6.74
2023-02-27T10:23:59.018Z,6.81
2023-02-27T10:26:30.823Z,6.71
2023-02-27T10:29:14.912Z,6.73
2023-02-27T10:31:43.725Z,6.72
2023-02-27T10:34:16.207Z,6.79
2023-02-27T10:36:44.344Z,6.83
2023-02-27T10:39:15.486Z,6.72
2023-02-27T10:41:45.128Z,6.84
2023-02-27T10:44:18.547Z,6.90
2023-02-27T10:46:46.361Z,7.06
2023-02-27T10:49:19.050Z,7.05
2023-02-27T10:51:47.618Z,7.10
2023-02-27T10:54:21.325Z,7.22
2023-02-27T10:56:52.212Z,7.37
2023-02-27T10:59:24.081Z,7.45
2023-02-27T11:01:54.715Z,7.37
2023-02-27T11:04:32.670Z,7.31
2023-02-27T11:07:04.244Z,7.23
2023-02-27T11:09:33.449Z,7.05
2023-02-27T11:12:22.202Z,7.09
2023-02-27T11:14:53.524Z,7.12
2023-02-27T11:17:24.773Z,7.02
2023-02-27T11:19:52.408Z,7.13
2023-02-27T11:22:23.536Z,7.09
2023-02-27T11:24:52.343Z,7.16
2023-02-27T11:27:22.949Z,7.34
2023-02-27T11:30:00.409Z,7.41
2023-02-27T11:32:36.913Z,7.79
2023-02-27T11:35:05.617Z,7.71
2023-02-27T11:37:36.154Z,7.75
2023-02-27T11:40:17.042Z,7.60
2023-02-27T11:42:47.509Z,7.58
2023-02-27T11:46:13.989Z,7.53
2023-02-27T11:48:23.533Z,7.55
2023-02-27T11:51:27.949Z,7.68
2023-02-27T11:54:09.499Z,7.71
2023-02-27T11:56:39.821Z,7.59
2023-02-27T11:59:18.388Z,7.71
2023-02-27T12:01:52.045Z,7.80
2023-02-27T12:04:25.184Z,7.88
2023-02-27T12:06:59.156Z,7.77
2023-02-27T12:09:39.557Z,7.71
2023-02-27T12:12:16.575Z,7.66
2023-02-27T12:14:50.513Z,7.77
2023-02-27T12:17:24.016Z,7.96
2023-02-27T12:20:19.687Z,8.09
2023-02-27T12:22:49.487Z,8.15
2023-02-27T12:25:26.199Z,8.05
2023-02-27T12:28:02.356Z,7.96
2023-02-27T12:30:34.813Z,8.04
2023-02-27T12:33:14.148Z,8.03
2023-02-27T12:35:44.030Z,7.97
2023-02-27T12:38:14.742Z,8.18
2023-02-27T12:40:54.743Z,8.19
2023-02-27T12:43:34.052Z,8.29
2023-02-27T12:46:24.704Z,8.80
2023-02-27T12:49:06.774Z,8.94
2023-02-27T12:51:44.140Z,8.99
2023-02-27T12:54:23.668Z,8.85
2023-02-27T12:57:02.628Z,8.77
2023-02-27T12:59:44.854Z,8.50
2023-02-27T13:02:40.091Z,8.51
2023-02-27T13:05:25.585Z,8.64
2023-02-27T13:07:58.555Z,8.85
2023-02-27T13:10:33.428Z,9.02
2023-02-27T13:13:09.614Z,8.86
2023-02-27T13:15:44.432Z,8.73
2023-02-27T13:18:32.914Z,9.01
2023-02-27T13:21:11.851Z,9.00
2023-02-27T13:23:50.673Z,9.05
2023-02-27T13:26:24.643Z,9.00
2023-02-27T13:28:53.778Z,8.86
2023-02-27T13:31:31.792Z,8.97
2023-02-27T13:34:09.662Z,8.63
2023-02-27T13:36:41.875Z,8.52
2023-02-27T13:39:56.020Z,8.42
2023-02-27T13:42:54.165Z,8.47
2023-02-27T13:45:51.367Z,8.29
2023-02-27T13:48:51.973Z,8.30
2023-02-27T13:51:44.963Z,8.21
2023-02-27T13:54:33.294Z,8.05
2023-02-27T13:57:22.072Z,7.98
2023-02-27T14:00:19.693Z,7.86
2023-02-27T14:02:59.943Z,7.94
2023-02-27T14:05:32.165Z,7.98
2023-02-27T14:08:07.833Z,8.00
2023-02-27T14:10:38.067Z,8.00
2023-02-27T14:13:07.758Z,8.08
2023-02-27T14:15:57.030Z,8.19
2023-02-27T14:18:52.474Z,8.23
2023-02-27T14:21:55.802Z,8.18
2023-02-27T14:24:49.600Z,8.20
2023-02-27T14:27:26.566Z,8.19
2023-02-27T14:29:58.420Z,8.26
2023-02-27T14:32:31.140Z,8.32
2023-02-27T14:34:59.970Z,8.34
2023-02-27T14:37:28.922Z,8.37
2023-02-27T14:40:03.257Z,8.53
2023-02-27T14:42:47.526Z,8.73
2023-02-27T14:45:19.912Z,8.83
2023-02-27T14:47:48.537Z,8.84
2023-02-27T14:50:26.642Z,8.89
2023-02-27T14:52:54.582Z,8.89
2023-02-27T14:55:29.572Z,8.86
2023-02-27T14:57:59.699Z,8.79
2023-02-27T15:00:39.006Z,8.73
2023-02-27T15:03:18.271Z,8.74
2023-02-27T15:05:47.309Z,8.69
2023-02-27T15:08:18.526Z,8.69
2023-02-27T15:10:47.981Z,8.74
2023-02-27T15:13:26.314Z,8.78
2023-02-27T15:16:34.380Z,8.72
2023-02-27T15:19:12.708Z,8.76
2023-02-27T15:21:43.083Z,8.74
2023-02-27T15:24:23.576Z,8.70
2023-02-27T15:26:56.184Z,8.68
2023-02-27T15:29:26.274Z,8.66
2023-02-27T15:31:55.473Z,8.63
2023-02-27T15:34:23.308Z,8.62
2023-02-27T15:36:54.217Z,8.60
2023-02-27T15:39:24.494Z,8.61
2023-02-27T15:41:54.358Z,8.57
2023-02-27T15:44:27.155Z,8.56
2023-02-27T15:46:58.322Z,8.55
2023-02-27T15:49:26.766Z,8.54
2023-02-27T15:52:02.113Z,8.50
2023-02-27T15:54:33.959Z,8.47
2023-02-27T15:57:04.313Z,8.41
2023-02-27T15:59:36.931Z,8.38
2023-02-27T16:02:07.552Z,8.31
2023-02-27T16:04:35.712Z,8.26
2023-02-27T16:07:07.482Z,8.21
2023-02-27T16:09:38.346Z,8.13
2023-02-27T16:12:14.007Z,8.07
2023-02-27T16:14:44.761Z,8.03
2023-02-27T16:17:28.974Z,7.96
2023-02-27T16:19:58.207Z,7.90
2023-02-27T16:22:26.335Z,7.85
2023-02-27T16:24:54.582Z,7.80
2023-02-27T16:27:26.140Z,7.76
2023-02-27T16:29:56.015Z,7.72
2023-02-27T16:32:28.305Z,7.66
2023-02-27T16:35:04.750Z,7.60
2023-02-27T16:37:37.385Z,7.54
2023-02-27T16:40:14.829Z,7.47
2023-02-27T16:42:42.838Z,7.40
2023-02-27T16:45:15.749Z,7.33
2023-02-27T16:47:45.062Z,7.29
2023-02-27T16:50:19.469Z,7.19
2023-02-27T16:52:47.254Z,7.13
2023-02-27T16:55:14.941Z,7.06
2023-02-27T16:57:42.665Z,7.01
2023-02-27T17:00:14.283Z,6.96
2023-02-27T17:02:42.973Z,6.90
2023-02-27T17:05:12.239Z,6.85
2023-02-27T17:07:39.900Z,6.80
2023-02-27T17:10:07.932Z,6.76
2023-02-27T17:12:36.774Z,6.73
2023-02-27T17:15:04.716Z,6.69
2023-02-27T17:17:32.402Z,6.66
2023-02-27T17:20:00.138Z,6.62
2023-02-27T17:22:29.107Z,6.58
2023-02-27T17:24:56.852Z,6.55
2023-02-27T17:27:24.432Z,6.50
2023-02-27T17:29:52.147Z,6.47
2023-02-27T17:32:20.046Z,6.46
2023-02-27T17:34:47.753Z,6.42
2023-02-27T17:37:15.326Z,6.40
2023-02-27T17:39:44.611Z,6.38
2023-02-27T17:42:16.447Z,6.35
2023-02-27T17:44:45.118Z,6.33
2023-02-27T17:47:12.955Z,6.32
2023-02-27T17:49:40.567Z,6.30
2023-02-27T17:52:08.474Z,6.29
2023-02-27T17:54:36.983Z,6.29
2023-02-27T17:57:06.801Z,6.27
2023-02-27T17:59:34.816Z,6.27
2023-02-27T18:02:02.483Z,6.26
2023-02-27T18:04:30.455Z,6.23
2023-02-27T18:06:58.102Z,6.21
2023-02-27T18:09:25.729Z,6.20
2023-02-27T18:11:53.410Z,6.18
2023-02-27T18:14:22.405Z,6.16
2023-02-27T18:16:50.186Z,6.11
2023-02-27T18:19:18.543Z,6.08
2023-02-27T18:21:47.165Z,6.04
2023-02-27T18:24:16.706Z,6.02
2023-02-27T18:26:45.284Z,5.97
2023-02-27T18:29:14.005Z,5.94
2023-02-27T18:31:45.623Z,5.92
2023-02-27T18:34:13.916Z,5.89
2023-02-27T18:36:41.588Z,5.87
2023-02-27T18:39:10.113Z,5.83
2023-02-27T18:41:37.939Z,5.82
2023-02-27T18:44:06.041Z,5.80
2023-02-27T18:46:35.065Z,5.79
2023-02-27T18:49:04.402Z,5.78
2023-02-27T18:51:32.123Z,5.77
2023-02-27T18:54:00.772Z,5.76
2023-02-27T18:56:32.705Z,5.75
2023-02-27T18:59:05.076Z,5.75
2023-02-27T19:01:34.859Z,5.74
2023-02-27T19:04:05.462Z,5.74
2023-02-27T19:06:34.354Z,5.76
2023-02-27T19:09:01.973Z,5.76
2023-02-27T19:11:33.303Z,5.73
2023-02-27T19:14:01.628Z,5.72
2023-02-27T19:16:29.724Z,5.73
2023-02-27T19:18:58.236Z,5.73
2023-02-27T19:21:29.042Z,5.74
2023-02-27T19:23:56.918Z,5.72
2023-02-27T19:26:25.214Z,5.68
2023-02-27T19:28:53.926Z,5.68
2023-02-27T19:31:23.384Z,5.69
2023-02-27T19:33:51.532Z,5.70
2023-02-27T19:36:21.610Z,5.69
2023-02-27T19:38:52.506Z,5.67
2023-02-27T19:41:21.525Z,5.65
2023-02-27T19:43:50.348Z,5.63
2023-02-27T19:46:20.212Z,5.59
2023-02-27T19:48:48.374Z,5.57
2023-02-27T19:51:16.853Z,5.56
2023-02-27T19:53:48.212Z,5.54
2023-02-27T19:56:18.947Z,5.52
2023-02-27T19:58:47.714Z,5.49
2023-02-27T20:01:22.762Z,5.44
2023-02-27T20:03:50.646Z,5.38
2023-02-27T20:06:21.013Z,5.40
2023-02-27T20:08:48.721Z,5.47
2023-02-27T20:11:19.825Z,5.49
2023-02-27T20:13:47.970Z,5.56
2023-02-27T20:16:18.570Z,5.62
2023-02-27T20:18:46.476Z,5.64
2023-02-27T20:21:17.133Z,5.66
2023-02-27T20:23:46.005Z,5.69
2023-02-27T20:26:15.689Z,5.70
2023-02-27T20:28:45.358Z,5.71
2023-02-27T20:31:14.605Z,5.70
2023-02-27T20:33:42.715Z,5.70
2023-02-27T20:36:12.467Z,5.71
2023-02-27T20:38:40.967Z,5.71
2023-02-27T20:41:10.267Z,5.72
2023-02-27T20:43:38.747Z,5.72
2023-02-27T20:46:11.476Z,5.75
2023-02-27T20:48:39.677Z,5.75
2023-02-27T20:51:09.177Z,5.73
2023-02-27T20:53:37.818Z,5.71
2023-02-27T20:56:06.428Z,5.73
2023-02-27T20:58:34.473Z,5.70
2023-02-27T21:01:04.163Z,5.70
2023-02-27T21:03:38.463Z,5.69
2023-02-27T21:06:08.194Z,5.66
2023-02-27T21:08:36.452Z,5.66
2023-02-27T21:11:08.381Z,5.66
2023-02-27T21:13:37.184Z,5.64
2023-02-27T21:16:05.434Z,5.63
2023-02-27T21:18:34.506Z,5.62
2023-02-27T21:21:04.840Z,5.61
2023-02-27T21:23:32.490Z,5.61
2023-02-27T21:26:00.119Z,5.61
2023-02-27T21:28:27.719Z,5.61
2023-02-27T21:30:55.418Z,5.63
2023-02-27T21:33:23.548Z,5.63
2023-02-27T21:35:52.879Z,5.62
2023-02-27T21:38:20.736Z,5.62
2023-02-27T21:40:48.783Z,5.61
2023-02-27T21:43:16.391Z,5.61
2023-02-27T21:45:47.430Z,5.59
2023-02-27T21:48:16.036Z,5.58
2023-02-27T21:50:43.839Z,5.53
2023-02-27T21:53:12.782Z,5.50
2023-02-27T21:55:40.465Z,5.45
2023-02-27T21:58:10.115Z,5.41
2023-02-27T22:00:37.735Z,5.38
2023-02-27T22:03:05.428Z,5.36
2023-02-27T22:05:33.284Z,5.33
2023-02-27T22:08:01.109Z,5.30
2023-02-27T22:10:30.060Z,5.28
2023-02-27T22:12:57.696Z,5.27
2023-02-27T22:15:25.487Z,5.24
2023-02-27T22:17:54.660Z,5.25
2023-02-27T22:20:22.335Z,5.24
2023-02-27T22:22:50.026Z,5.22
2023-02-27T22:25:17.888Z,5.21
2023-02-27T22:27:47.028Z,5.22
2023-02-27T22:30:15.326Z,5.23
2023-02-27T22:32:43.487Z,5.23
2023-02-27T22:35:11.104Z,5.22
2023-02-27T22:37:39.055Z,5.23
2023-02-27T22:40:08.144Z,5.23
2023-02-27T22:42:35.777Z,5.23
2023-02-27T22:45:05.259Z,5.20
2023-02-27T22:47:32.836Z,5.20
2023-02-27T22:50:00.455Z,5.17
2023-02-27T22:52:28.132Z,5.16
2023-02-27T22:54:55.896Z,5.13
2023-02-27T22:57:23.684Z,5.12
2023-02-27T22:59:51.260Z,5.10
2023-02-27T23:02:20.183Z,5.06
2023-02-27T23:04:47.814Z,5.06
2023-02-27T23:07:15.395Z,5.03
2023-02-27T23:09:43.820Z,5.02
2023-02-27T23:12:11.436Z,5.02
2023-02-27T23:14:39.372Z,5.03
2023-02-27T23:17:07.218Z,5.03
2023-02-27T23:19:36.484Z,5.02
2023-02-27T23:22:04.237Z,5.01
2023-02-27T23:24:32.027Z,5.00
2023-02-27T23:27:00.111Z,4.99
2023-02-27T23:29:27.780Z,4.98
2023-02-27T23:31:55.612Z,4.99
2023-02-27T23:34:23.348Z,4.99
2023-02-27T23:36:52.284Z,4.99
2023-02-27T23:39:20.551Z,5.00
2023-02-27T23:41:48.236Z,4.99
2023-02-27T23:44:15.871Z,4.99
2023-02-27T23:46:43.557Z,4.98
2023-02-27T23:49:12.247Z,4.98
2023-02-27T23:51:40.038Z,4.98
2023-02-27T23:54:09.029Z,5.00
2023-02-27T23:56:36.752Z,5.01
2023-02-27T23:59:07.343Z,5.02
